Portada
METAR-TAF:

METAR-TAF

Aeroports :

Kiritimati, Kiribati

latitud: 01-59N, longitud: 157-29W, altitud: 3 m

Observació

L'informe es va fer fa 59 minuts, a les 11:00 UTC
Vent 7 kt del Est/Sud-Est
Temperatura 26°C
Humitat 79%
Pressió 1010 hPa
Visibilitat 10 km o més
Núvols disperses a una alçada de 2000 ft
Núvols disperses a una alçada de 2000 ft
Cel cobert a una alçada de 4000 ft

METAR: PLCH 231100Z 11007KT 9999 SCT020 SCT020 OVC040 26/22 Q1010

Hora: 01:59 (11:59 UTC)

Pronòstic

L'informe es va fer fa 40 minuts, a les 11:19 UTC
Pronòstic vàlid del 23 a les 12 UTC al 24 a les 12 UTC
Vent 8 kt del Est/Sud-Est
Visibilitat 10 km o més
Núvols disperses a una alçada de 2000 ft
Cel cobert a una alçada de 4000 ft

TAF: PLCH 231119Z 2312/2412 12008KT 9999 SCT020 OVC040

Observacions i pronòstics meteorològics de més de 4000 aeroports (METAR i TAF).

Les estacions disponibles són els punts grocs i vermells al mapa.

Posi el ratolí al punt desitjat per veure el nom de l'estació.

Feu clic per veure les observacions i els pronòstics meteorològics.

Per canviar el mapa: feu clic els botons verds amb una creu de color negre per apropar; al botó verd amb un guió per allunyar la imatge; o en les fletxes verdes per a mapes adjacents.


METAR-TAF: